createdAt,value
2016-12-28T00:00:28.221Z,0
2016-12-28T00:01:28.429Z,0
2016-12-28T00:02:28.862Z,0
2016-12-28T00:03:28.225Z,0
2016-12-28T00:04:27.839Z,0
2016-12-28T00:05:29.591Z,0
2016-12-28T00:06:28.479Z,0
2016-12-28T00:07:28.955Z,0
2016-12-28T00:08:28.229Z,0
2016-12-28T00:09:28.235Z,0
2016-12-28T00:10:28.605Z,0
2016-12-28T00:11:28.530Z,0
2016-12-28T00:12:28.627Z,0
2016-12-28T00:13:28.893Z,0
2016-12-28T00:14:28.273Z,0
2016-12-28T00:15:28.954Z,0
2016-12-28T00:16:29.236Z,0
2016-12-28T00:17:29.069Z,0
2016-12-28T00:18:28.929Z,0
2016-12-28T00:19:28.258Z,0
2016-12-28T00:20:30.232Z,0
2016-12-28T00:21:28.981Z,0
2016-12-28T00:22:28.907Z,0
2016-12-28T00:23:29.344Z,0
2016-12-28T00:24:28.705Z,0
2016-12-28T00:25:28.037Z,0
2016-12-28T00:26:28.933Z,0
2016-12-28T00:27:28.361Z,0
2016-12-28T00:28:28.061Z,0
2016-12-28T00:29:28.529Z,0
2016-12-28T00:30:28.822Z,0
2016-12-28T00:31:30.192Z,0
2016-12-28T00:32:28.348Z,0
2016-12-28T00:33:28.309Z,0
2016-12-28T00:34:28.098Z,0
2016-12-28T00:35:28.734Z,0
2016-12-28T00:36:28.571Z,0
2016-12-28T00:37:28.486Z,0
2016-12-28T00:38:28.824Z,0
2016-12-28T00:39:28.086Z,0
2016-12-28T00:40:28.867Z,0
2016-12-28T00:41:28.456Z,0
2016-12-28T00:42:30.240Z,0
2016-12-28T00:43:28.512Z,0
2016-12-28T00:44:28.167Z,0
2016-12-28T00:45:28.799Z,0
2016-12-28T00:46:28.812Z,0
2016-12-28T00:47:28.500Z,0
2016-12-28T00:48:28.819Z,0
2016-12-28T00:49:28.830Z,0
2016-12-28T00:50:28.789Z,0
2016-12-28T00:51:29.513Z,0
2016-12-28T00:52:28.202Z,0
2016-12-28T00:53:29.643Z,0
2016-12-28T00:54:28.810Z,0
2016-12-28T00:55:29.228Z,0
2016-12-28T00:56:28.557Z,0
2016-12-28T00:57:29.191Z,0
2016-12-28T00:58:28.934Z,0
2016-12-28T00:59:28.532Z,0
2016-12-28T01:00:28.903Z,0
2016-12-28T01:01:29.222Z,0
2016-12-28T01:02:29.894Z,0
2016-12-28T01:03:29.288Z,0
2016-12-28T01:04:29.676Z,0
2016-12-28T01:05:28.559Z,0
2016-12-28T01:06:28.266Z,0
2016-12-28T01:07:29.261Z,0
2016-12-28T01:08:28.956Z,0
2016-12-28T01:09:28.602Z,0
2016-12-28T01:10:28.921Z,0
2016-12-28T01:11:28.618Z,0
2016-12-28T01:12:28.752Z,0
2016-12-28T01:13:28.992Z,0
2016-12-28T01:14:28.687Z,0
2016-12-28T01:15:29.815Z,0
2016-12-28T01:16:29.326Z,0
2016-12-28T01:17:29.341Z,0
2016-12-28T01:18:29.026Z,0
2016-12-28T01:19:29.347Z,0
2016-12-28T01:20:29.409Z,0
2016-12-28T01:21:28.600Z,0
2016-12-28T01:22:28.692Z,0
2016-12-28T01:23:28.697Z,0
2016-12-28T01:24:29.018Z,0
2016-12-28T01:25:29.388Z,0
2016-12-28T01:26:29.958Z,0
2016-12-28T01:27:29.405Z,0
2016-12-28T01:28:29.045Z,0
2016-12-28T01:29:28.790Z,0
2016-12-28T01:30:29.110Z,0
2016-12-28T01:31:29.066Z,0
2016-12-28T01:32:28.861Z,0
2016-12-28T01:33:28.822Z,0
2016-12-28T01:34:28.877Z,0
2016-12-28T01:35:28.833Z,0
2016-12-28T01:36:29.514Z,0
2016-12-28T01:37:29.409Z,0
2016-12-28T01:38:29.428Z,0
2016-12-28T01:39:31.059Z,0
2016-12-28T01:40:28.918Z,0
2016-12-28T01:41:30.338Z,0
2016-12-28T01:42:29.144Z,0
2016-12-28T01:43:29.513Z,0
2016-12-28T01:44:29.161Z,0
2016-12-28T01:45:29.532Z,0
2016-12-28T01:46:29.269Z,0
2016-12-28T01:47:29.181Z,0
2016-12-28T01:48:29.234Z,0
2016-12-28T01:49:29.210Z,0
2016-12-28T01:50:28.993Z,0
2016-12-28T01:51:28.728Z,0
2016-12-28T01:52:29.726Z,0
2016-12-28T01:53:29.273Z,0
2016-12-28T01:54:28.915Z,0
2016-12-28T01:55:29.604Z,0
2016-12-28T01:56:28.627Z,0
2016-12-28T01:57:28.777Z,0
2016-12-28T01:58:29.326Z,0
2016-12-28T01:59:29.001Z,0
2016-12-28T02:00:29.274Z,0
2016-12-28T02:01:30.899Z,0
2016-12-28T02:02:28.972Z,0
2016-12-28T02:03:29.829Z,0
2016-12-28T02:04:29.348Z,0
2016-12-28T02:05:29.048Z,0
2016-12-28T02:06:29.046Z,0
2016-12-28T02:07:29.710Z,0
2016-12-28T02:08:29.065Z,0
2016-12-28T02:09:29.069Z,0
2016-12-28T02:10:29.078Z,0
2016-12-28T02:11:29.785Z,0
2016-12-28T02:12:30.695Z,0
2016-12-28T02:13:29.712Z,0
2016-12-28T02:14:29.258Z,0
2016-12-28T02:15:29.062Z,0
2016-12-28T02:16:29.175Z,0
2016-12-28T02:17:29.437Z,0
2016-12-28T02:18:29.787Z,0
2016-12-28T02:19:29.757Z,0
2016-12-28T02:20:29.776Z,0
2016-12-28T02:21:29.155Z,0
2016-12-28T02:22:29.840Z,0
2016-12-28T02:23:30.845Z,0
2016-12-28T02:24:29.537Z,0
2016-12-28T02:25:29.731Z,0
2016-12-28T02:26:29.140Z,0
2016-12-28T02:27:29.563Z,0
2016-12-28T02:28:29.259Z,0
2016-12-28T02:29:29.215Z,0
2016-12-28T02:30:29.530Z,0
2016-12-28T02:31:29.322Z,0
2016-12-28T02:32:29.843Z,0
2016-12-28T02:33:29.816Z,0
2016-12-28T02:34:30.301Z,0
2016-12-28T02:35:29.567Z,0
2016-12-28T02:36:29.192Z,0
2016-12-28T02:37:29.895Z,0
2016-12-28T02:38:30.515Z,0
2016-12-28T02:39:29.023Z,0
2016-12-28T02:40:29.653Z,0
2016-12-28T02:41:29.249Z,0
2016-12-28T02:42:29.256Z,0
2016-12-28T02:43:29.620Z,0
2016-12-28T02:44:29.388Z,0
2016-12-28T02:45:30.382Z,0
2016-12-28T02:46:29.589Z,0
2016-12-28T02:47:29.721Z,0
2016-12-28T02:48:29.342Z,0
2016-12-28T02:49:31.251Z,0
2016-12-28T02:50:29.355Z,0
2016-12-28T02:51:29.366Z,0
2016-12-28T02:52:30.000Z,0
2016-12-28T02:53:29.640Z,0
2016-12-28T02:54:29.960Z,0
2016-12-28T02:55:29.702Z,0
2016-12-28T02:56:29.061Z,0
2016-12-28T02:57:29.716Z,0
2016-12-28T02:58:29.772Z,0
2016-12-28T02:59:29.731Z,0
2016-12-28T03:00:30.890Z,0
2016-12-28T03:01:29.411Z,0
2016-12-28T03:02:29.437Z,0
2016-12-28T03:03:29.441Z,0
2016-12-28T03:04:29.818Z,0
2016-12-28T03:05:29.409Z,0
2016-12-28T03:06:30.097Z,0
2016-12-28T03:07:30.148Z,0
2016-12-28T03:08:30.042Z,0
2016-12-28T03:09:30.159Z,0
2016-12-28T03:10:29.911Z,0
2016-12-28T03:11:31.085Z,0
2016-12-28T03:12:30.128Z,0
2016-12-28T03:13:29.534Z,0
2016-12-28T03:14:29.255Z,0
2016-12-28T03:15:29.846Z,0
2016-12-28T03:16:29.482Z,0
2016-12-28T03:17:29.844Z,0
2016-12-28T03:18:29.597Z,0
2016-12-28T03:19:29.868Z,0
2016-12-28T03:20:29.929Z,0
2016-12-28T03:21:29.568Z,0
2016-12-28T03:22:31.150Z,0
2016-12-28T03:23:29.925Z,0
2016-12-28T03:24:29.942Z,0
2016-12-28T03:25:29.863Z,0
2016-12-28T03:26:29.967Z,0
2016-12-28T03:27:29.927Z,0
2016-12-28T03:28:29.882Z,0
2016-12-28T03:29:30.040Z,0
2016-12-28T03:30:29.939Z,0
2016-12-28T03:31:29.952Z,0
2016-12-28T03:32:29.896Z,0
2016-12-28T03:33:31.117Z,0
2016-12-28T03:34:29.664Z,0
2016-12-28T03:35:29.930Z,0
2016-12-28T03:36:29.988Z,0
2016-12-28T03:37:29.947Z,0
2016-12-28T03:38:30.051Z,0
2016-12-28T03:39:29.955Z,0
2016-12-28T03:40:30.438Z,0
2016-12-28T03:41:30.283Z,0
2016-12-28T03:42:30.028Z,0
2016-12-28T03:43:30.085Z,0
2016-12-28T03:44:30.746Z,0
2016-12-28T03:45:29.737Z,0
2016-12-28T03:46:29.894Z,0
2016-12-28T03:47:30.012Z,0
2016-12-28T03:48:30.121Z,0
2016-12-28T03:49:30.074Z,0
2016-12-28T03:50:29.721Z,0
2016-12-28T03:51:29.734Z,0
2016-12-28T03:52:29.788Z,0
2016-12-28T03:53:30.055Z,0
2016-12-28T03:54:30.112Z,0
2016-12-28T03:55:31.271Z,0
2016-12-28T03:56:29.767Z,0
2016-12-28T03:57:30.185Z,0
2016-12-28T03:58:29.931Z,0
2016-12-28T03:59:30.096Z,0
2016-12-28T04:00:29.844Z,0
2016-12-28T04:01:29.584Z,0
2016-12-28T04:02:30.119Z,0
2016-12-28T04:03:30.127Z,0
2016-12-28T04:04:29.566Z,0
2016-12-28T04:05:30.195Z,0
2016-12-28T04:06:31.298Z,0
2016-12-28T04:07:30.206Z,0
2016-12-28T04:08:30.198Z,0
2016-12-28T04:09:30.268Z,0
2016-12-28T04:10:29.970Z,0
2016-12-28T04:11:29.915Z,0
2016-12-28T04:12:29.980Z,0
2016-12-28T04:13:30.297Z,0
2016-12-28T04:14:30.202Z,0
2016-12-28T04:15:30.312Z,0
2016-12-28T04:16:29.957Z,0
2016-12-28T04:17:31.079Z,0
2016-12-28T04:18:30.547Z,0
2016-12-28T04:19:29.976Z,0
2016-12-28T04:20:30.562Z,0
2016-12-28T04:21:29.993Z,0
2016-12-28T04:22:29.952Z,0
2016-12-28T04:23:30.679Z,0
2016-12-28T04:24:30.272Z,0
2016-12-28T04:25:30.331Z,0
2016-12-28T04:26:30.601Z,0
2016-12-28T04:27:30.032Z,0
2016-12-28T04:28:31.403Z,0
2016-12-28T04:29:30.097Z,0
2016-12-28T04:30:30.678Z,0
2016-12-28T04:31:30.369Z,0
2016-12-28T04:32:31.837Z,0
2016-12-28T04:33:30.385Z,0
2016-12-28T04:34:29.720Z,0
2016-12-28T04:35:30.393Z,0
2016-12-28T04:36:30.407Z,0
2016-12-28T04:37:30.468Z,0
2016-12-28T04:38:30.162Z,0
2016-12-28T04:39:29.805Z,0
2016-12-28T04:40:30.490Z,0
2016-12-28T04:41:30.442Z,0
2016-12-28T04:42:30.137Z,0
2016-12-28T04:43:31.358Z,0
2016-12-28T04:44:30.516Z,0
2016-12-28T04:45:29.794Z,0
2016-12-28T04:46:30.837Z,0
2016-12-28T04:47:30.118Z,0
2016-12-28T04:48:30.496Z,0
2016-12-28T04:49:30.496Z,0
2016-12-28T04:50:30.224Z,0
2016-12-28T04:51:30.464Z,0
2016-12-28T04:52:30.197Z,0
2016-12-28T04:53:30.477Z,0
2016-12-28T04:54:31.585Z,0
2016-12-28T04:55:30.184Z,0
2016-12-28T04:56:30.602Z,0
2016-12-28T04:57:30.249Z,0
2016-12-28T04:58:29.938Z,0
2016-12-28T04:59:30.882Z,0
2016-12-28T05:00:29.903Z,0
2016-12-28T05:01:30.272Z,0
2016-12-28T05:02:30.324Z,0
2016-12-28T05:03:30.287Z,0
2016-12-28T05:04:30.606Z,0
2016-12-28T05:05:31.213Z,0
2016-12-28T05:06:30.719Z,0
2016-12-28T05:07:30.725Z,0
2016-12-28T05:08:30.638Z,0
2016-12-28T05:09:30.330Z,0
2016-12-28T05:10:30.335Z,0
2016-12-28T05:11:30.297Z,0
2016-12-28T05:12:30.974Z,0
2016-12-28T05:13:30.380Z,0
2016-12-28T05:14:30.312Z,0
2016-12-28T05:15:30.420Z,0
2016-12-28T05:16:31.944Z,0
2016-12-28T05:17:30.746Z,0
2016-12-28T05:18:31.018Z,0
2016-12-28T05:19:30.710Z,0
2016-12-28T05:20:30.361Z,0
2016-12-28T05:21:31.045Z,0
2016-12-28T05:22:30.724Z,0
2016-12-28T05:23:30.738Z,0
2016-12-28T05:24:30.437Z,0
2016-12-28T05:25:30.708Z,0
2016-12-28T05:26:30.450Z,0
2016-12-28T05:27:31.770Z,0
2016-12-28T05:28:30.199Z,0
2016-12-28T05:29:30.934Z,0
2016-12-28T05:30:31.106Z,0
2016-12-28T05:31:30.801Z,0
2016-12-28T05:32:30.131Z,0
2016-12-28T05:33:30.502Z,0
2016-12-28T05:34:30.560Z,0
2016-12-28T05:35:30.514Z,0
2016-12-28T05:36:30.177Z,0
2016-12-28T05:37:30.502Z,0
2016-12-28T05:38:30.223Z,0
2016-12-28T05:39:30.806Z,0
2016-12-28T05:40:30.874Z,0
2016-12-28T05:41:30.818Z,0
2016-12-28T05:42:30.829Z,0
2016-12-28T05:43:30.633Z,0
2016-12-28T05:44:30.843Z,0
2016-12-28T05:45:30.899Z,0
2016-12-28T05:46:31.221Z,0
2016-12-28T05:47:30.600Z,0
2016-12-28T05:48:30.711Z,0
2016-12-28T05:49:32.469Z,0
2016-12-28T05:50:30.887Z,0
2016-12-28T05:51:31.338Z,0
2016-12-28T05:52:31.214Z,0
2016-12-28T05:53:30.335Z,0
2016-12-28T05:54:30.344Z,0
2016-12-28T05:55:31.343Z,0
2016-12-28T05:56:31.294Z,0
2016-12-28T05:57:30.628Z,0
2016-12-28T05:58:30.733Z,0
2016-12-28T05:59:30.740Z,0
2016-12-28T06:00:32.453Z,0
2016-12-28T06:01:30.656Z,0
2016-12-28T06:02:31.427Z,0
2016-12-28T06:03:31.344Z,0
2016-12-28T06:04:31.111Z,0
2016-12-28T06:05:30.371Z,0
2016-12-28T06:06:31.365Z,0
2016-12-28T06:07:31.007Z,0
2016-12-28T06:08:30.759Z,0
2016-12-28T06:09:31.076Z,0
2016-12-28T06:10:30.721Z,0
2016-12-28T06:11:30.780Z,0
2016-12-28T06:12:30.734Z,0
2016-12-28T06:13:31.806Z,0
2016-12-28T06:14:31.422Z,0
2016-12-28T06:15:31.120Z,0
2016-12-28T06:16:31.177Z,0
2016-12-28T06:17:30.831Z,0
2016-12-28T06:18:31.190Z,0
2016-12-28T06:19:30.836Z,0
2016-12-28T06:20:30.891Z,0
2016-12-28T06:21:31.481Z,0
2016-12-28T06:22:31.442Z,0
2016-12-28T06:23:31.439Z,0
2016-12-28T06:24:31.548Z,0
2016-12-28T06:25:31.190Z,0
2016-12-28T06:26:32.742Z,0
2016-12-28T06:27:30.945Z,0
2016-12-28T06:28:30.537Z,0
2016-12-28T06:29:31.223Z,0
2016-12-28T06:30:30.965Z,0
2016-12-28T06:31:31.232Z,0
2016-12-28T06:32:30.879Z,0
2016-12-28T06:33:31.255Z,0
2016-12-28T06:34:31.571Z,0
2016-12-28T06:35:31.318Z,0
2016-12-28T06:36:31.633Z,0
2016-12-28T06:37:32.744Z,0
2016-12-28T06:38:31.237Z,0
2016-12-28T06:39:31.281Z,0
2016-12-28T06:40:31.034Z,0
2016-12-28T06:41:31.336Z,0
2016-12-28T06:42:31.263Z,0
2016-12-28T06:43:31.323Z,0
2016-12-28T06:44:31.641Z,0
2016-12-28T06:45:30.976Z,0
2016-12-28T06:46:31.232Z,0
2016-12-28T06:47:31.398Z,0
2016-12-28T06:48:32.525Z,0
2016-12-28T06:49:31.055Z,0
2016-12-28T06:50:31.418Z,0
2016-12-28T06:51:31.328Z,0
2016-12-28T06:52:31.436Z,0
2016-12-28T06:53:31.398Z,0
2016-12-28T06:54:31.363Z,0
2016-12-28T06:55:31.341Z,0
2016-12-28T06:56:31.104Z,0
2016-12-28T06:57:31.787Z,0
2016-12-28T06:58:31.064Z,0
2016-12-28T06:59:32.736Z,0
2016-12-28T07:00:31.127Z,0
2016-12-28T07:01:31.383Z,0
2016-12-28T07:02:31.091Z,0
2016-12-28T07:03:31.514Z,0
2016-12-28T07:04:31.260Z,0
2016-12-28T07:05:31.424Z,0
2016-12-28T07:06:30.907Z,0
2016-12-28T07:07:31.542Z,0
2016-12-28T07:08:31.184Z,0
2016-12-28T07:09:31.453Z,0
2016-12-28T07:10:32.452Z,0
2016-12-28T07:11:31.928Z,0
2016-12-28T07:12:31.667Z,0
2016-12-28T07:13:31.582Z,0
2016-12-28T07:14:31.486Z,0
2016-12-28T07:15:31.544Z,0
2016-12-28T07:16:31.817Z,0
2016-12-28T07:17:31.296Z,4
2016-12-28T07:18:31.255Z,4
2016-12-28T07:19:31.885Z,4
2016-12-28T07:20:31.009Z,0
2016-12-28T07:21:32.577Z,4
2016-12-28T07:22:31.229Z,0
2016-12-28T07:23:31.126Z,0
2016-12-28T07:24:31.553Z,4
2016-12-28T07:25:31.665Z,4
2016-12-28T07:26:31.667Z,4
2016-12-28T07:27:31.893Z,4
2016-12-28T07:28:33.923Z,4
2016-12-28T07:29:31.331Z,4
2016-12-28T07:30:31.337Z,4
2016-12-28T07:31:31.707Z,4
2016-12-28T07:32:32.149Z,4
2016-12-28T07:33:31.983Z,8
2016-12-28T07:34:31.726Z,8
2016-12-28T07:35:32.097Z,4
2016-12-28T07:36:32.688Z,8
2016-12-28T07:37:31.700Z,8
2016-12-28T07:38:31.651Z,8
2016-12-28T07:39:32.026Z,8
2016-12-28T07:40:31.767Z,12
2016-12-28T07:41:31.726Z,12
2016-12-28T07:42:32.045Z,8
2016-12-28T07:43:32.173Z,12
2016-12-28T07:44:31.694Z,12
2016-12-28T07:45:31.441Z,16
2016-12-28T07:46:31.449Z,16
2016-12-28T07:47:32.368Z,20
2016-12-28T07:48:32.090Z,20
2016-12-28T07:49:32.148Z,24
2016-12-28T07:50:31.489Z,20
2016-12-28T07:51:31.849Z,20
2016-12-28T07:52:31.491Z,24
2016-12-28T07:53:31.917Z,24
2016-12-28T07:54:31.932Z,28
2016-12-28T07:55:31.779Z,28
2016-12-28T07:56:31.784Z,36
2016-12-28T07:57:31.527Z,36
2016-12-28T07:58:32.596Z,32
2016-12-28T07:59:31.543Z,36
2016-12-28T08:00:31.187Z,40
2016-12-28T08:01:31.870Z,40
2016-12-28T08:02:31.824Z,36
2016-12-28T08:03:31.522Z,36
2016-12-28T08:04:31.578Z,40
2016-12-28T08:05:31.534Z,48
2016-12-28T08:06:32.265Z,52
2016-12-28T08:07:31.915Z,64
2016-12-28T08:08:31.928Z,68
2016-12-28T08:09:32.475Z,64
2016-12-28T08:10:31.934Z,64
2016-12-28T08:11:31.891Z,64
2016-12-28T08:12:31.632Z,64
2016-12-28T08:13:32.218Z,60
2016-12-28T08:14:31.655Z,64
2016-12-28T08:15:31.654Z,64
2016-12-28T08:16:32.291Z,72
2016-12-28T08:17:32.297Z,76
2016-12-28T08:18:33.507Z,76
2016-12-28T08:19:31.371Z,84
2016-12-28T08:20:32.356Z,88
2016-12-28T08:21:31.966Z,84
2016-12-28T08:22:31.756Z,84
2016-12-28T08:23:32.086Z,88
2016-12-28T08:24:31.675Z,92
2016-12-28T08:25:32.094Z,100
2016-12-28T08:26:32.003Z,108
2016-12-28T08:27:31.433Z,112
2016-12-28T08:28:31.806Z,120
2016-12-28T08:29:32.033Z,120
2016-12-28T08:30:32.431Z,124
2016-12-28T08:31:32.753Z,136
2016-12-28T08:32:31.790Z,148
2016-12-28T08:33:32.053Z,176
2016-12-28T08:34:31.753Z,180
2016-12-28T08:35:32.067Z,184
2016-12-28T08:36:32.075Z,196
2016-12-28T08:37:32.136Z,196
2016-12-28T08:38:32.410Z,188
2016-12-28T08:39:31.835Z,192
2016-12-28T08:40:33.376Z,212
2016-12-28T08:41:31.900Z,216
2016-12-28T08:42:32.669Z,236
2016-12-28T08:43:32.178Z,260
2016-12-28T08:44:34.013Z,272
2016-12-28T08:45:31.880Z,296
2016-12-28T08:46:31.840Z,308
2016-12-28T08:47:32.211Z,328
2016-12-28T08:48:32.266Z,324
2016-12-28T08:49:32.535Z,312
2016-12-28T08:50:32.282Z,284
2016-12-28T08:51:31.925Z,280
2016-12-28T08:52:32.513Z,296
2016-12-28T08:53:32.437Z,320
2016-12-28T08:54:32.213Z,292
2016-12-28T08:55:33.820Z,264
2016-12-28T08:56:32.014Z,232
2016-12-28T08:57:31.919Z,204
2016-12-28T08:58:32.293Z,192
2016-12-28T08:59:32.244Z,176
2016-12-28T09:00:32.572Z,176
2016-12-28T09:01:32.264Z,168
2016-12-28T09:02:32.635Z,148
2016-12-28T09:03:32.279Z,124
2016-12-28T09:04:32.646Z,108
2016-12-28T09:05:32.341Z,112
2016-12-28T09:06:33.705Z,116
2016-12-28T09:07:31.730Z,120
2016-12-28T09:08:32.101Z,124
2016-12-28T09:09:32.425Z,144
2016-12-28T09:10:32.334Z,160
2016-12-28T09:11:32.436Z,172
2016-12-28T09:12:32.345Z,176
2016-12-28T09:13:32.092Z,168
2016-12-28T09:14:32.728Z,156
2016-12-28T09:15:32.830Z,140
2016-12-28T09:16:32.067Z,128
2016-12-28T09:17:33.632Z,136
2016-12-28T09:18:32.393Z,140
2016-12-28T09:19:32.485Z,136
2016-12-28T09:20:31.877Z,128
2016-12-28T09:21:32.464Z,120
2016-12-28T09:22:32.735Z,116
2016-12-28T09:23:32.840Z,124
2016-12-28T09:24:32.736Z,136
2016-12-28T09:25:32.127Z,160
2016-12-28T09:26:32.196Z,136
2016-12-28T09:27:32.510Z,136
2016-12-28T09:28:33.409Z,148
2016-12-28T09:29:32.529Z,156
2016-12-28T09:30:32.529Z,172
2016-12-28T09:31:32.494Z,188
2016-12-28T09:32:32.279Z,208
2016-12-28T09:33:32.297Z,212
2016-12-28T09:34:32.561Z,216
2016-12-28T09:35:32.309Z,228
2016-12-28T09:36:32.527Z,248
2016-12-28T09:37:32.274Z,268
2016-12-28T09:38:32.542Z,276
2016-12-28T09:39:33.864Z,284
2016-12-28T09:40:32.557Z,284
2016-12-28T09:41:32.667Z,264
2016-12-28T09:42:32.360Z,252
2016-12-28T09:43:32.582Z,252
2016-12-28T09:44:32.587Z,272
2016-12-28T09:45:32.338Z,288
2016-12-28T09:46:32.292Z,288
2016-12-28T09:47:32.713Z,288
2016-12-28T09:48:32.359Z,300
2016-12-28T09:49:32.678Z,316
2016-12-28T09:50:34.144Z,316
2016-12-28T09:51:32.410Z,312
2016-12-28T09:52:32.397Z,308
2016-12-28T09:53:32.347Z,296
2016-12-28T09:54:33.082Z,284
2016-12-28T09:55:32.612Z,272
2016-12-28T09:56:32.419Z,272
2016-12-28T09:57:32.431Z,284
2016-12-28T09:58:32.696Z,304
2016-12-28T09:59:32.907Z,312
2016-12-28T10:00:32.454Z,328
2016-12-28T10:01:34.648Z,340
2016-12-28T10:02:32.515Z,360
2016-12-28T10:03:33.101Z,372
2016-12-28T10:04:33.149Z,360
2016-12-28T10:05:33.121Z,344
2016-12-28T10:06:32.851Z,332
2016-12-28T10:07:32.826Z,328
2016-12-28T10:08:34.498Z,336
2016-12-28T10:09:32.587Z,356
2016-12-28T10:10:34.014Z,364
2016-12-28T10:11:32.950Z,372
2016-12-28T10:12:32.810Z,380
2016-12-28T10:13:33.059Z,372
2016-12-28T10:14:32.933Z,360
2016-12-28T10:15:33.626Z,364
2016-12-28T10:16:32.686Z,380
2016-12-28T10:17:34.712Z,388
2016-12-28T10:18:33.253Z,400
2016-12-28T10:19:33.036Z,420
2016-12-28T10:20:33.296Z,456
2016-12-28T10:21:32.888Z,484
2016-12-28T10:22:32.974Z,472
2016-12-28T10:23:33.263Z,464
2016-12-28T10:24:34.368Z,444
2016-12-28T10:25:33.305Z,432
2016-12-28T10:26:34.807Z,420
2016-12-28T10:27:32.987Z,420
2016-12-28T10:28:33.305Z,420
2016-12-28T10:29:33.335Z,436
2016-12-28T10:30:33.009Z,452
2016-12-28T10:31:32.738Z,472
2016-12-28T10:32:32.712Z,496
2016-12-28T10:33:35.441Z,500
2016-12-28T10:34:33.146Z,508
2016-12-28T10:35:33.304Z,536
2016-12-28T10:36:33.072Z,556
2016-12-28T10:37:32.699Z,576
2016-12-28T10:38:33.190Z,584
2016-12-28T10:39:32.827Z,576
2016-12-28T10:40:33.285Z,572
2016-12-28T10:41:33.370Z,568
2016-12-28T10:42:33.457Z,560
2016-12-28T10:43:32.774Z,572
2016-12-28T10:44:32.922Z,572
2016-12-28T10:45:33.200Z,584
2016-12-28T10:46:33.532Z,584
2016-12-28T10:47:32.835Z,580
2016-12-28T10:48:33.520Z,552
2016-12-28T10:49:33.644Z,528
2016-12-28T10:50:33.621Z,512
2016-12-28T10:51:33.234Z,492
2016-12-28T10:52:33.174Z,504
2016-12-28T10:53:33.152Z,516
2016-12-28T10:54:33.284Z,500
2016-12-28T10:55:33.319Z,464
2016-12-28T10:56:34.209Z,428
2016-12-28T10:57:33.326Z,412
2016-12-28T10:58:34.455Z,404
2016-12-28T10:59:33.626Z,396
2016-12-28T11:00:33.127Z,404
2016-12-28T11:01:32.946Z,412
2016-12-28T11:02:33.257Z,416
2016-12-28T11:03:33.334Z,436
2016-12-28T11:04:33.101Z,432
2016-12-28T11:05:33.868Z,440
2016-12-28T11:06:33.157Z,428
2016-12-28T11:07:33.351Z,412
2016-12-28T11:08:33.229Z,384
2016-12-28T11:09:33.657Z,360
2016-12-28T11:10:33.565Z,352
2016-12-28T11:11:33.051Z,360
2016-12-28T11:12:33.082Z,348
2016-12-28T11:13:33.428Z,344
2016-12-28T11:14:33.470Z,348
2016-12-28T11:15:33.548Z,352
2016-12-28T11:16:33.063Z,364
2016-12-28T11:17:33.518Z,392
2016-12-28T11:18:33.419Z,412
2016-12-28T11:19:33.730Z,436
2016-12-28T11:20:33.684Z,448
2016-12-28T11:21:33.299Z,440
2016-12-28T11:22:33.458Z,432
2016-12-28T11:23:33.886Z,432
2016-12-28T11:24:33.561Z,424
2016-12-28T11:25:33.251Z,432
2016-12-28T11:26:35.591Z,456
2016-12-28T11:27:33.442Z,472
2016-12-28T11:28:33.622Z,456
2016-12-28T11:29:33.941Z,456
2016-12-28T11:30:33.983Z,460
2016-12-28T11:31:33.313Z,472
2016-12-28T11:32:34.035Z,480
2016-12-28T11:33:35.034Z,476
2016-12-28T11:34:33.358Z,464
2016-12-28T11:35:33.278Z,448
2016-12-28T11:36:33.616Z,452
2016-12-28T11:37:34.041Z,492
2016-12-28T11:38:33.713Z,408
2016-12-28T11:39:33.208Z,332
2016-12-28T11:40:34.156Z,284
2016-12-28T11:41:33.364Z,256
2016-12-28T11:42:33.749Z,236
2016-12-28T11:43:33.340Z,220
2016-12-28T11:44:33.837Z,200
2016-12-28T11:45:33.845Z,188
2016-12-28T11:46:33.724Z,176
2016-12-28T11:47:34.540Z,172
2016-12-28T11:48:33.789Z,168
2016-12-28T11:49:33.836Z,168
2016-12-28T11:50:33.743Z,172
2016-12-28T11:51:33.791Z,176
2016-12-28T11:52:33.851Z,180
2016-12-28T11:53:33.955Z,168
2016-12-28T11:54:33.662Z,168
2016-12-28T11:55:33.930Z,176
2016-12-28T11:56:33.612Z,180
2016-12-28T11:57:34.436Z,196
2016-12-28T11:58:34.355Z,200
2016-12-28T11:59:34.633Z,200
2016-12-28T12:00:33.604Z,204
2016-12-28T12:01:33.315Z,220
2016-12-28T12:02:34.223Z,240
2016-12-28T12:03:33.904Z,256
2016-12-28T12:04:34.126Z,280
2016-12-28T12:05:33.264Z,312
2016-12-28T12:06:33.750Z,340
2016-12-28T12:07:34.103Z,356
2016-12-28T12:08:34.033Z,360
2016-12-28T12:09:34.238Z,368
2016-12-28T12:10:33.816Z,376
2016-12-28T12:11:34.635Z,376
2016-12-28T12:12:33.681Z,392
2016-12-28T12:13:34.114Z,396
2016-12-28T12:14:33.767Z,396
2016-12-28T12:15:34.094Z,392
2016-12-28T12:16:33.864Z,388
2016-12-28T12:17:34.594Z,392
2016-12-28T12:18:33.940Z,400
2016-12-28T12:19:34.228Z,400
2016-12-28T12:20:34.121Z,404
2016-12-28T12:21:34.324Z,404
2016-12-28T12:22:34.750Z,392
2016-12-28T12:23:34.330Z,392
2016-12-28T12:24:33.830Z,412
2016-12-28T12:25:34.562Z,428
2016-12-28T12:26:34.267Z,436
2016-12-28T12:27:34.223Z,420
2016-12-28T12:28:34.325Z,428
2016-12-28T12:29:34.622Z,448
2016-12-28T12:30:34.726Z,456
2016-12-28T12:31:34.714Z,452
2016-12-28T12:32:33.476Z,452
2016-12-28T12:33:33.942Z,448
2016-12-28T12:34:33.806Z,448
2016-12-28T12:35:34.008Z,452
2016-12-28T12:36:34.386Z,448
2016-12-28T12:37:35.407Z,436
2016-12-28T12:38:34.018Z,440
2016-12-28T12:39:33.967Z,456
2016-12-28T12:40:34.409Z,456
2016-12-28T12:41:34.900Z,444
2016-12-28T12:42:35.207Z,440
2016-12-28T12:43:34.207Z,448
2016-12-28T12:44:34.011Z,444
2016-12-28T12:45:34.475Z,436
2016-12-28T12:46:34.448Z,440
2016-12-28T12:47:34.778Z,440
2016-12-28T12:48:34.466Z,432
2016-12-28T12:49:34.421Z,424
2016-12-28T12:50:34.512Z,416
2016-12-28T12:51:34.502Z,412
2016-12-28T12:52:35.029Z,404
2016-12-28T12:53:34.513Z,404
2016-12-28T12:54:33.935Z,408
2016-12-28T12:55:33.666Z,412
2016-12-28T12:56:33.648Z,420
2016-12-28T12:57:35.078Z,420
2016-12-28T12:58:34.671Z,404
2016-12-28T12:59:33.817Z,404
2016-12-28T13:00:35.035Z,400
2016-12-28T13:01:34.087Z,384
2016-12-28T13:02:35.013Z,364
2016-12-28T13:03:34.238Z,368
2016-12-28T13:04:34.587Z,376
2016-12-28T13:05:34.968Z,376
2016-12-28T13:06:34.193Z,368
2016-12-28T13:07:34.610Z,376
2016-12-28T13:08:34.621Z,388
2016-12-28T13:09:35.174Z,404
2016-12-28T13:10:34.997Z,412
2016-12-28T13:11:35.682Z,424
2016-12-28T13:12:34.765Z,440
2016-12-28T13:13:35.349Z,456
2016-12-28T13:14:34.270Z,448
2016-12-28T13:15:34.621Z,432
2016-12-28T13:16:34.274Z,412
2016-12-28T13:17:34.708Z,400
2016-12-28T13:18:34.204Z,388
2016-12-28T13:19:34.836Z,376
2016-12-28T13:20:35.100Z,376
2016-12-28T13:21:35.527Z,380
2016-12-28T13:22:35.492Z,380
2016-12-28T13:23:35.155Z,388
2016-12-28T13:24:35.282Z,392
2016-12-28T13:25:35.193Z,392
2016-12-28T13:26:35.707Z,396
2016-12-28T13:27:34.441Z,388
2016-12-28T13:28:35.274Z,388
2016-12-28T13:29:34.809Z,392
2016-12-28T13:30:34.018Z,396
2016-12-28T13:31:36.019Z,388
2016-12-28T13:32:34.842Z,388
2016-12-28T13:33:35.178Z,392
2016-12-28T13:34:34.871Z,384
2016-12-28T13:35:34.421Z,376
2016-12-28T13:36:36.269Z,372
2016-12-28T13:37:34.970Z,380
2016-12-28T13:38:34.860Z,384
2016-12-28T13:39:34.815Z,388
2016-12-28T13:40:34.891Z,388
2016-12-28T13:41:35.352Z,380
2016-12-28T13:42:35.415Z,376
2016-12-28T13:43:34.878Z,368
2016-12-28T13:44:35.241Z,356
2016-12-28T13:45:34.919Z,340
2016-12-28T13:46:34.865Z,332
2016-12-28T13:47:34.809Z,324
2016-12-28T13:48:36.379Z,316
2016-12-28T13:49:34.929Z,316
2016-12-28T13:50:35.287Z,316
2016-12-28T13:51:35.593Z,312
2016-12-28T13:52:35.329Z,292
2016-12-28T13:53:35.122Z,276
2016-12-28T13:54:35.090Z,272
2016-12-28T13:55:34.563Z,276
2016-12-28T13:56:36.021Z,280
2016-12-28T13:57:34.602Z,276
2016-12-28T13:58:34.726Z,268
2016-12-28T13:59:35.036Z,256
2016-12-28T14:00:34.760Z,244
2016-12-28T14:01:34.587Z,244
2016-12-28T14:02:35.547Z,236
2016-12-28T14:03:35.036Z,236
2016-12-28T14:04:34.693Z,232
2016-12-28T14:05:34.621Z,228
2016-12-28T14:06:35.403Z,212
2016-12-28T14:07:34.671Z,208
2016-12-28T14:08:35.151Z,204
2016-12-28T14:09:35.526Z,200
2016-12-28T14:10:34.203Z,204
2016-12-28T14:11:37.158Z,204
2016-12-28T14:12:34.444Z,200
2016-12-28T14:13:35.260Z,200
2016-12-28T14:14:36.482Z,192
2016-12-28T14:15:35.145Z,192
2016-12-28T14:16:35.257Z,188
2016-12-28T14:17:35.239Z,188
2016-12-28T14:18:35.128Z,184
2016-12-28T14:19:36.918Z,184